Seguin, TX (78156)

1:40 PM CST on December 18, 2014 (GMT -0600)
Eastgate | Change Station
CLOSE
Current Station
Personal Weather Station
Location: Seguin, TX
Elevation: 541 ft
Nearby Weather Stations

Elev 541 ft 29.57 °N, 97.93 °W | Updated 6 seconds ago

Overcast
Overcast
63.5 °F
Feels Like 63.5 °F
N
0.0
Wind Variable Wind from North
Gusts 1.0 mph

Today
High -- | Low -- °F
--% Chance of Precip.
Yesterday
High -- | Low -- °F
Precip. -- in
7:20 AM 5:35 PM
Waning Crescent, 12% visible
Pressure 30.05 in
Visibility 10.0 miles
Clouds Overcast 1000 ft
Dew Point 59 °F
Humidity 84%
Rainfall 0.00 in
Snow Depth Not available.
UV 1 out of 12
Pollen 8.50 out of 12
Air Quality Not available.
Flu Activity Not available.
METAR KBAZ 181851Z 06007KT 10SM OVC010 18/14 A3006 RMK AO2 SLP175 T01780139

More Conditions Fewer Conditions

Pressure 30.05 in
Visibility 10.0 miles
Clouds Overcast 1000 ft
Dew Point 59 °F
Humidity 84%
Rainfall 0.00 in
Snow Depth Not available.
UV 1 out of 12
Pollen 8.50 out of 12
Air Quality Not available.
Flu Activity Not available.
METAR KBAZ 181851Z 06007KT 10SM OVC010 18/14 A3006 RMK AO2 SLP175 T01780139

More Conditions Fewer Conditions

10-Day Weather Forecast

Almanac

Astronomy

Dec. 18, 2014 Rise Set
Actual Time
Civil Twilight
Nautical Twilight
Astronomical Twilight
Moon
Length of Visible Light
Length of Day
Tomorrow will be .
, % of the Moon is Illuminated

Today's Extremes

State Highs State Lows

Community

WunderPhotos

Upload Photos

1,778,985 photos uploaded!

WunderBlogs® & News

Nearby

Air Quality

  Air Quality AQ Index Pollutant
Not available.

Snow Depth

Station Depth Elevation

Earthquake Activity

City Distance Mag. Time & Date
Minimum magnitude displayed is 2.5.

Coastal Water Temperatures

Place Temperature

Nearby Weather Stations